Terminal Aerodrome Forecast
Issued by NWS

Home | Current Version | Previous Version | Text Only | Print | Product List | Glossary On
Versions: 1 2 3 4 5 6 7 8 9 10 11 12 13 14 15 16 17 18 19 20
728
FTUS43 KGRB 181727
TAFCWA
TAF
KCWA 181727Z 1818/1918 20008KT P6SM SCT006
     FM181900 23009G16KT P6SM SKC
     FM182200 23006KT P6SM SKC WS015/27035KT
     FM190200 23006KT P6SM SKC
      TEMPO 1906/1908 BKN006
     FM190800 23005KT 4SM BR BKN006
      TEMPO 1910/1914 2SM BR BKN004
     FM191600 20004KT P6SM SCT008 BKN250=

USA.gov is the U.S. government's official web portal to all federal, state and local government web resources and services.